createdAt,value
2024-02-02T00:02:20.182Z,5.73
2024-02-02T00:04:46.899Z,5.75
2024-02-02T00:07:13.794Z,5.77
2024-02-02T00:09:40.676Z,5.76
2024-02-02T00:12:12.184Z,5.76
2024-02-02T00:14:39.241Z,5.77
2024-02-02T00:17:06.141Z,5.76
2024-02-02T00:19:33.420Z,5.76
2024-02-02T00:22:00.257Z,5.78
2024-02-02T00:24:26.951Z,5.80
2024-02-02T00:26:54.016Z,5.80
2024-02-02T00:29:20.564Z,5.81
2024-02-02T00:31:47.237Z,5.80
2024-02-02T00:34:14.166Z,5.78
2024-02-02T00:36:40.891Z,5.78
2024-02-02T00:39:07.550Z,5.80
2024-02-02T00:41:34.359Z,5.81
2024-02-02T00:44:01.055Z,5.80
2024-02-02T00:46:29.843Z,5.81
2024-02-02T00:48:56.613Z,5.80
2024-02-02T00:51:23.409Z,5.82
2024-02-02T00:53:50.202Z,5.82
2024-02-02T00:56:16.906Z,5.86
2024-02-02T00:58:43.723Z,5.85
2024-02-02T01:01:10.351Z,5.88
2024-02-02T01:03:38.814Z,5.89
2024-02-02T01:06:05.954Z,5.90
2024-02-02T01:08:32.755Z,5.91
2024-02-02T01:11:01.826Z,5.92
2024-02-02T01:13:30.232Z,5.92
2024-02-02T01:15:57.857Z,5.92
2024-02-02T01:18:24.589Z,5.93
2024-02-02T01:20:51.565Z,5.93
2024-02-02T01:23:18.593Z,5.94
2024-02-02T01:25:45.244Z,5.95
2024-02-02T01:28:11.975Z,5.97
2024-02-02T01:30:39.081Z,5.96
2024-02-02T01:33:06.246Z,5.98
2024-02-02T01:35:32.980Z,5.96
2024-02-02T01:37:59.534Z,5.97
2024-02-02T01:40:26.489Z,6.00
2024-02-02T01:42:53.132Z,6.00
2024-02-02T01:45:20.282Z,5.98
2024-02-02T01:47:47.141Z,5.99
2024-02-02T01:50:13.951Z,6.01
2024-02-02T01:52:41.131Z,6.03
2024-02-02T01:55:08.613Z,6.03
2024-02-02T01:57:35.387Z,6.06
2024-02-02T02:00:03.424Z,6.05
2024-02-02T02:02:30.767Z,6.05
2024-02-02T02:04:58.513Z,6.05
2024-02-02T02:07:25.406Z,6.06
2024-02-02T02:09:52.253Z,6.07
2024-02-02T02:12:19.155Z,6.07
2024-02-02T02:14:46.176Z,6.07
2024-02-02T02:17:13.013Z,6.08
2024-02-02T02:19:40.987Z,6.08
2024-02-02T02:22:07.962Z,6.08
2024-02-02T02:24:34.684Z,6.08
2024-02-02T02:27:01.773Z,6.09
2024-02-02T02:29:28.773Z,6.09
2024-02-02T02:31:56.469Z,6.10
2024-02-02T02:34:30.336Z,6.10
2024-02-02T02:36:57.129Z,6.09
2024-02-02T02:39:23.839Z,6.08
2024-02-02T02:41:50.912Z,6.12
2024-02-02T02:44:17.754Z,6.09
2024-02-02T02:46:44.398Z,6.10
2024-02-02T02:49:11.352Z,6.10
2024-02-02T02:51:43.206Z,6.10
2024-02-02T02:54:10.340Z,6.10
2024-02-02T02:56:36.993Z,6.09
2024-02-02T02:59:04.024Z,6.06
2024-02-02T03:01:30.706Z,6.06
2024-02-02T03:03:57.398Z,6.04
2024-02-02T03:06:24.189Z,6.04
2024-02-02T03:08:50.892Z,6.04
2024-02-02T03:11:17.584Z,6.02
2024-02-02T03:13:44.128Z,6.02
2024-02-02T03:16:10.972Z,6.01
2024-02-02T03:18:37.785Z,5.98
2024-02-02T03:21:05.124Z,5.98
2024-02-02T03:23:31.796Z,5.97
2024-02-02T03:25:58.479Z,5.96
2024-02-02T03:28:25.115Z,5.95
2024-02-02T03:30:51.918Z,5.93
2024-02-02T03:33:18.936Z,5.90
2024-02-02T03:35:45.629Z,5.91
2024-02-02T03:38:12.427Z,5.90
2024-02-02T03:40:39.082Z,5.91
2024-02-02T03:43:05.726Z,5.90
2024-02-02T03:45:32.966Z,5.90
2024-02-02T03:48:01.560Z,5.88
2024-02-02T03:50:28.701Z,5.87
2024-02-02T03:52:56.458Z,5.86
2024-02-02T03:55:23.160Z,5.87
2024-02-02T03:57:49.930Z,5.87
2024-02-02T04:00:17.411Z,5.87
2024-02-02T04:02:46.877Z,5.88
2024-02-02T04:05:13.675Z,5.88
2024-02-02T04:07:40.408Z,5.88
2024-02-02T04:10:08.600Z,5.87
2024-02-02T04:12:35.709Z,5.88
2024-02-02T04:15:02.408Z,5.90
2024-02-02T04:17:29.301Z,5.89
2024-02-02T04:19:56.240Z,5.91
2024-02-02T04:22:23.108Z,5.93
2024-02-02T04:24:49.742Z,5.93
2024-02-02T04:27:16.563Z,5.92
2024-02-02T04:29:43.379Z,5.92
2024-02-02T04:32:10.046Z,5.92
2024-02-02T04:34:37.146Z,5.90
2024-02-02T04:37:04.133Z,5.90
2024-02-02T04:39:30.806Z,5.90
2024-02-02T04:41:57.647Z,5.91
2024-02-02T04:44:25.678Z,5.91
2024-02-02T04:46:52.538Z,5.90
2024-02-02T04:49:19.528Z,5.90
2024-02-02T04:51:46.729Z,5.90
2024-02-02T04:54:13.573Z,5.90
2024-02-02T04:56:40.335Z,5.88
2024-02-02T04:59:06.944Z,5.85
2024-02-02T05:01:35.842Z,5.85
2024-02-02T05:04:02.541Z,5.84
2024-02-02T05:06:29.316Z,5.83
2024-02-02T05:08:56.719Z,5.84
2024-02-02T05:11:23.394Z,5.83
2024-02-02T05:13:50.236Z,5.81
2024-02-02T05:16:16.948Z,5.80
2024-02-02T05:18:43.892Z,5.79
2024-02-02T05:21:10.869Z,5.77
2024-02-02T05:23:43.678Z,5.77
2024-02-02T05:26:16.291Z,5.76
2024-02-02T05:28:43.380Z,5.76
2024-02-02T05:31:10.710Z,5.72
2024-02-02T05:33:37.543Z,5.72
2024-02-02T05:36:04.537Z,5.69
2024-02-02T05:38:31.314Z,5.64
2024-02-02T05:40:57.867Z,5.64
2024-02-02T05:43:25.006Z,5.64
2024-02-02T05:45:51.645Z,5.63
2024-02-02T05:48:18.660Z,5.60
2024-02-02T05:50:46.723Z,5.59
2024-02-02T05:53:13.909Z,5.58
2024-02-02T05:55:40.893Z,5.57
2024-02-02T05:58:07.975Z,5.57
2024-02-02T06:00:34.975Z,5.57
2024-02-02T06:03:01.884Z,5.53
2024-02-02T06:05:28.731Z,5.54
2024-02-02T06:07:55.454Z,5.53
2024-02-02T06:10:22.049Z,5.52
2024-02-02T06:12:48.580Z,5.53
2024-02-02T06:15:16.717Z,5.53
2024-02-02T06:17:43.390Z,5.54
2024-02-02T06:20:11.139Z,5.50
2024-02-02T06:22:37.795Z,5.48
2024-02-02T06:25:04.876Z,5.50
2024-02-02T06:27:32.255Z,5.50
2024-02-02T06:30:05.050Z,5.51
2024-02-02T06:32:31.808Z,5.52
2024-02-02T06:35:00.300Z,5.50
2024-02-02T06:37:28.035Z,5.49
2024-02-02T06:39:56.166Z,5.50
2024-02-02T06:42:23.740Z,5.50
2024-02-02T06:44:52.464Z,5.50
2024-02-02T06:47:19.336Z,5.51
2024-02-02T06:49:46.091Z,5.50
2024-02-02T06:52:14.855Z,5.51
2024-02-02T06:54:45.159Z,5.49
2024-02-02T06:57:11.995Z,5.50
2024-02-02T06:59:39.107Z,5.52
2024-02-02T07:02:31.272Z,5.51
2024-02-02T07:04:58.829Z,5.52
2024-02-02T07:07:26.217Z,5.53
2024-02-02T07:09:57.709Z,5.54
2024-02-02T07:12:43.557Z,5.55
2024-02-02T07:15:18.007Z,5.56
2024-02-02T07:17:46.602Z,5.58
2024-02-02T07:20:31.709Z,5.57
2024-02-02T07:23:02.598Z,5.60
2024-02-02T07:25:38.176Z,5.61
2024-02-02T07:28:08.880Z,5.61
2024-02-02T07:30:59.352Z,5.62
2024-02-02T07:33:39.714Z,5.63
2024-02-02T07:36:24.584Z,5.67
2024-02-02T07:38:56.871Z,5.74
2024-02-02T07:41:26.222Z,5.81
2024-02-02T07:43:55.269Z,5.87
2024-02-02T07:46:22.767Z,5.97
2024-02-02T07:48:50.745Z,6.05
2024-02-02T07:51:19.460Z,6.13
2024-02-02T07:53:47.508Z,6.21
2024-02-02T07:56:14.643Z,6.28
2024-02-02T07:58:41.364Z,6.39
2024-02-02T08:01:09.580Z,6.46
2024-02-02T08:03:37.102Z,6.52
2024-02-02T08:06:05.169Z,6.57
2024-02-02T08:08:33.410Z,6.64
2024-02-02T08:11:03.165Z,6.65
2024-02-02T08:13:31.603Z,6.72
2024-02-02T08:15:59.940Z,6.78
2024-02-02T08:18:28.449Z,6.87
2024-02-02T08:20:55.885Z,6.95
2024-02-02T08:23:23.064Z,6.96
2024-02-02T08:25:49.863Z,6.99
2024-02-02T08:28:16.470Z,7.05
2024-02-02T08:30:43.224Z,7.13
2024-02-02T08:33:10.515Z,7.14
2024-02-02T08:35:37.490Z,7.17
2024-02-02T08:38:07.936Z,7.22
2024-02-02T08:40:40.206Z,7.30
2024-02-02T08:43:15.801Z,7.34
2024-02-02T08:45:42.563Z,7.38
2024-02-02T08:48:24.667Z,7.41
2024-02-02T08:50:51.828Z,7.46
2024-02-02T08:53:19.302Z,7.45
2024-02-02T08:55:50.570Z,7.50
2024-02-02T08:58:33.058Z,7.55
2024-02-02T09:01:00.768Z,7.60
2024-02-02T09:03:47.002Z,7.64
2024-02-02T09:06:26.155Z,7.72
2024-02-02T09:08:52.856Z,7.76
2024-02-02T09:11:24.644Z,7.81
2024-02-02T09:14:15.956Z,7.83
2024-02-02T09:16:44.886Z,7.89
2024-02-02T09:19:27.861Z,7.94
2024-02-02T09:21:57.764Z,7.95
2024-02-02T09:24:37.046Z,8.02
2024-02-02T09:27:04.264Z,8.05
2024-02-02T09:29:31.480Z,8.08
2024-02-02T09:31:58.290Z,8.14
2024-02-02T09:34:26.065Z,8.19
2024-02-02T09:36:54.766Z,8.20
2024-02-02T09:39:51.364Z,8.27
2024-02-02T09:42:52.429Z,8.31
2024-02-02T09:45:28.793Z,8.39
2024-02-02T09:48:23.008Z,8.45
2024-02-02T09:51:00.236Z,8.45
2024-02-02T09:54:07.483Z,8.48
2024-02-02T09:56:39.798Z,8.57
2024-02-02T09:59:26.759Z,8.61
2024-02-02T10:02:19.598Z,8.62
2024-02-02T10:04:58.193Z,8.66
2024-02-02T10:07:52.761Z,8.72
2024-02-02T10:10:31.589Z,8.71
2024-02-02T10:13:04.286Z,8.68
2024-02-02T10:16:11.817Z,8.73
2024-02-02T10:18:38.859Z,8.79
2024-02-02T10:21:49.087Z,8.83
2024-02-02T10:24:31.007Z,8.82
2024-02-02T10:27:35.340Z,8.88
2024-02-02T10:30:17.760Z,8.95
2024-02-02T10:32:50.759Z,8.98
2024-02-02T10:35:45.543Z,9.05
2024-02-02T10:38:30.598Z,9.09
2024-02-02T10:41:23.624Z,9.19
2024-02-02T10:44:11.909Z,9.25
2024-02-02T10:47:07.148Z,9.30
2024-02-02T10:49:52.826Z,9.38
2024-02-02T10:52:46.068Z,9.40
2024-02-02T10:55:19.400Z,9.41
2024-02-02T10:58:08.656Z,9.53
2024-02-02T11:00:49.218Z,9.47
2024-02-02T11:03:46.676Z,9.50
2024-02-02T11:06:35.905Z,9.55
2024-02-02T11:09:10.571Z,9.62
2024-02-02T11:11:47.259Z,9.65
2024-02-02T11:14:30.917Z,9.64
2024-02-02T11:17:22.203Z,9.76
2024-02-02T11:20:01.101Z,9.75
2024-02-02T11:22:46.289Z,9.82
2024-02-02T11:25:20.062Z,9.85
2024-02-02T11:27:58.596Z,9.88
2024-02-02T11:30:37.361Z,9.96
2024-02-02T11:33:22.341Z,9.89
2024-02-02T11:35:55.287Z,9.95
2024-02-02T11:38:41.100Z,9.92
2024-02-02T11:41:17.617Z,9.88
2024-02-02T11:43:46.744Z,9.92
2024-02-02T11:46:15.651Z,9.90
2024-02-02T11:48:45.617Z,9.91
2024-02-02T11:51:13.003Z,9.89
2024-02-02T11:53:56.528Z,9.88
2024-02-02T11:56:33.641Z,9.84
2024-02-02T11:59:10.503Z,9.87
2024-02-02T12:02:01.380Z,9.88
2024-02-02T12:04:50.614Z,9.82
2024-02-02T12:07:54.977Z,9.80
2024-02-02T12:10:24.497Z,9.81
2024-02-02T12:13:06.324Z,9.78
2024-02-02T12:15:33.886Z,9.79
2024-02-02T12:18:03.944Z,9.76
2024-02-02T12:20:32.560Z,9.78
2024-02-02T12:22:59.647Z,9.69
2024-02-02T12:25:27.162Z,9.69
2024-02-02T12:27:54.334Z,9.76
2024-02-02T12:30:21.621Z,9.75
2024-02-02T12:33:04.709Z,9.80
2024-02-02T12:35:32.160Z,9.79
2024-02-02T12:37:59.173Z,9.81
2024-02-02T12:40:26.695Z,9.77
2024-02-02T12:42:57.538Z,9.84
2024-02-02T12:45:24.651Z,9.82
2024-02-02T12:47:51.686Z,9.88
2024-02-02T12:50:22.838Z,9.88
2024-02-02T12:52:55.349Z,9.86
2024-02-02T12:55:22.336Z,9.89
2024-02-02T12:57:49.314Z,9.85
2024-02-02T13:00:16.799Z,9.87
2024-02-02T13:02:45.486Z,9.93
2024-02-02T13:05:18.739Z,9.96
2024-02-02T13:07:49.000Z,9.89
2024-02-02T13:10:35.135Z,9.93
2024-02-02T13:13:14.919Z,9.94
2024-02-02T13:15:43.895Z,10.03
2024-02-02T13:18:16.475Z,10.01
2024-02-02T13:20:47.233Z,10.03
2024-02-02T13:23:26.493Z,10.07
2024-02-02T13:26:02.660Z,10.03
2024-02-02T13:28:31.019Z,10.06
2024-02-02T13:30:59.725Z,10.09
2024-02-02T13:33:33.248Z,10.10
2024-02-02T13:36:03.057Z,10.11
2024-02-02T13:38:32.889Z,10.16
2024-02-02T13:41:03.138Z,10.13
2024-02-02T13:43:30.513Z,10.18
2024-02-02T13:46:08.956Z,10.22
2024-02-02T13:48:38.526Z,10.24
2024-02-02T13:51:06.790Z,10.24
2024-02-02T13:53:33.918Z,10.30
2024-02-02T13:56:06.492Z,10.35
2024-02-02T13:58:40.527Z,10.30
2024-02-02T14:01:13.845Z,10.35
2024-02-02T14:03:40.863Z,10.31
2024-02-02T14:06:08.026Z,10.37
2024-02-02T14:16:34.337Z,10.39
2024-02-02T14:19:06.367Z,10.38
2024-02-02T14:21:34.955Z,10.38
2024-02-02T14:24:18.973Z,10.35
2024-02-02T14:27:09.639Z,10.34
2024-02-02T14:29:43.138Z,10.29
2024-02-02T14:32:13.773Z,10.26
2024-02-02T14:34:40.797Z,10.35
2024-02-02T14:37:10.016Z,10.30
2024-02-02T14:39:36.963Z,10.25
2024-02-02T14:42:04.766Z,10.26
2024-02-02T14:44:31.574Z,10.26
2024-02-02T14:47:00.545Z,10.22
2024-02-02T14:49:27.665Z,10.20
2024-02-02T14:51:55.375Z,10.19
2024-02-02T14:54:22.948Z,10.26
2024-02-02T14:57:02.187Z,10.27
2024-02-02T14:59:42.337Z,10.27
2024-02-02T15:02:09.851Z,10.27
2024-02-02T15:04:36.747Z,10.24
2024-02-02T15:07:04.317Z,10.24
2024-02-02T15:09:32.087Z,10.24
2024-02-02T15:12:04.404Z,10.24
2024-02-02T15:14:33.843Z,10.25
2024-02-02T15:17:00.811Z,10.25
2024-02-02T15:19:27.780Z,10.25
2024-02-02T15:21:54.802Z,10.25
2024-02-02T15:24:21.659Z,10.25
2024-02-02T15:26:48.819Z,10.25
2024-02-02T15:29:16.020Z,10.24
2024-02-02T15:31:42.684Z,10.25
2024-02-02T15:34:09.802Z,10.24
2024-02-02T15:36:37.011Z,10.23
2024-02-02T15:39:18.697Z,10.21
2024-02-02T15:41:53.258Z,10.19
2024-02-02T15:44:19.995Z,10.18
2024-02-02T15:46:46.570Z,10.22
2024-02-02T15:49:13.623Z,10.13
2024-02-02T15:51:40.721Z,10.15
2024-02-02T15:54:07.702Z,10.13
2024-02-02T15:56:40.727Z,10.15
2024-02-02T15:59:11.018Z,10.17
2024-02-02T16:01:38.318Z,10.14
2024-02-02T16:04:05.329Z,10.15
2024-02-02T16:06:32.463Z,10.14
2024-02-02T16:08:59.415Z,10.18
2024-02-02T16:11:26.119Z,10.16
2024-02-02T16:13:53.518Z,10.10
2024-02-02T16:16:21.319Z,10.09
2024-02-02T16:18:48.848Z,10.07
2024-02-02T16:21:15.883Z,10.05
2024-02-02T16:23:42.591Z,10.10
2024-02-02T16:26:28.061Z,10.11
2024-02-02T16:28:54.748Z,10.09
2024-02-02T16:31:21.473Z,10.13
2024-02-02T16:33:48.420Z,10.14
2024-02-02T16:36:15.253Z,10.14
2024-02-02T16:38:44.163Z,10.11
2024-02-02T16:41:14.352Z,10.17
2024-02-02T16:43:41.191Z,10.17
2024-02-02T16:46:08.080Z,10.18
2024-02-02T16:48:34.835Z,10.21
2024-02-02T16:51:01.722Z,10.25
2024-02-02T16:53:28.682Z,10.19
2024-02-02T16:55:55.539Z,10.17
2024-02-02T16:58:22.134Z,10.16
2024-02-02T17:00:49.598Z,10.22
2024-02-02T17:03:16.486Z,10.21
2024-02-02T17:05:43.282Z,10.18
2024-02-02T17:08:10.367Z,10.18
2024-02-02T17:10:36.972Z,10.16
2024-02-02T17:13:03.787Z,10.19
2024-02-02T17:15:30.699Z,10.16
2024-02-02T17:17:57.492Z,10.17
2024-02-02T17:20:27.032Z,10.19
2024-02-02T17:22:55.266Z,10.16
2024-02-02T17:25:22.008Z,10.18
2024-02-02T17:27:48.692Z,10.13
2024-02-02T17:30:18.384Z,10.17
2024-02-02T17:32:45.372Z,10.13
2024-02-02T17:35:12.124Z,10.10
2024-02-02T17:37:40.059Z,10.13
2024-02-02T17:40:08.583Z,10.08
2024-02-02T17:42:35.586Z,10.07
2024-02-02T17:45:02.400Z,10.06
2024-02-02T17:47:29.209Z,10.06
2024-02-02T17:49:56.899Z,10.05
2024-02-02T17:52:24.878Z,10.06
2024-02-02T17:54:51.694Z,10.07
2024-02-02T17:57:19.840Z,10.04
2024-02-02T17:59:46.704Z,10.05
2024-02-02T18:02:13.523Z,10.09
2024-02-02T18:04:40.447Z,10.09
2024-02-02T18:07:09.649Z,10.06
2024-02-02T18:09:40.219Z,10.12
2024-02-02T18:12:11.902Z,10.10
2024-02-02T18:14:39.775Z,10.07
2024-02-02T18:17:06.850Z,10.10
2024-02-02T18:19:34.074Z,10.05
2024-02-02T18:22:01.088Z,10.04
2024-02-02T18:24:27.900Z,10.01
2024-02-02T18:26:54.463Z,10.04
2024-02-02T18:29:21.056Z,10.05
2024-02-02T18:31:50.082Z,10.07
2024-02-02T18:34:17.111Z,10.05
2024-02-02T18:36:43.942Z,10.09
2024-02-02T18:39:13.736Z,10.09
2024-02-02T18:41:40.398Z,10.10
2024-02-02T18:44:08.729Z,10.16
2024-02-02T18:46:35.384Z,10.10
2024-02-02T18:49:04.200Z,10.06
2024-02-02T18:51:32.340Z,10.03
2024-02-02T18:53:59.110Z,10.04
2024-02-02T18:56:25.811Z,9.99
2024-02-02T18:58:52.528Z,9.98
2024-02-02T19:01:26.365Z,10.01
2024-02-02T19:03:54.008Z,10.01
2024-02-02T19:06:21.364Z,10.07
2024-02-02T19:08:48.226Z,10.07
2024-02-02T19:11:16.139Z,10.04
2024-02-02T19:13:42.941Z,10.02
2024-02-02T19:16:24.007Z,10.04
2024-02-02T19:18:51.553Z,10.05
2024-02-02T19:21:23.007Z,10.08
2024-02-02T19:23:50.467Z,10.04
2024-02-02T19:26:55.327Z,10.04
2024-02-02T19:29:22.009Z,10.05
2024-02-02T19:31:48.758Z,10.09
2024-02-02T19:34:15.719Z,10.06
2024-02-02T19:36:42.598Z,10.04
2024-02-02T19:39:09.872Z,10.05
2024-02-02T19:41:36.541Z,10.02
2024-02-02T19:44:03.306Z,10.05
2024-02-02T19:46:32.757Z,10.04
2024-02-02T19:49:01.387Z,10.05
2024-02-02T19:51:29.990Z,10.04
2024-02-02T19:53:57.117Z,10.06
2024-02-02T19:56:24.255Z,10.09
2024-02-02T19:58:51.108Z,10.06
2024-02-02T20:01:22.164Z,10.05
2024-02-02T20:03:50.993Z,10.05
2024-02-02T20:06:19.471Z,10.09
2024-02-02T20:08:53.545Z,10.12
2024-02-02T20:11:26.596Z,10.12
2024-02-02T20:13:53.445Z,10.10
2024-02-02T20:16:21.522Z,10.07
2024-02-02T20:21:48.701Z,10.09
2024-02-02T20:24:15.582Z,10.08
2024-02-02T20:26:42.513Z,10.05
2024-02-02T20:29:09.562Z,10.02
2024-02-02T20:31:41.012Z,10.02
2024-02-02T20:34:07.766Z,9.97
2024-02-02T20:36:34.646Z,9.99
2024-02-02T20:39:01.387Z,9.99
2024-02-02T20:41:28.246Z,10.00
2024-02-02T20:43:55.345Z,10.03
2024-02-02T20:46:22.306Z,10.00
2024-02-02T20:48:50.587Z,10.01
2024-02-02T20:51:18.160Z,9.99
2024-02-02T20:53:45.469Z,10.00
2024-02-02T20:56:12.467Z,9.99
2024-02-02T20:58:39.231Z,10.01
2024-02-02T21:01:07.118Z,10.03
2024-02-02T21:03:34.241Z,10.01
2024-02-02T21:06:01.930Z,9.98
2024-02-02T21:08:29.211Z,9.92
2024-02-02T21:10:56.463Z,9.85
2024-02-02T21:13:23.489Z,9.79
2024-02-02T21:15:50.637Z,9.73
2024-02-02T21:18:17.607Z,9.63
2024-02-02T21:20:46.585Z,9.59
2024-02-02T21:23:13.606Z,9.52
2024-02-02T21:25:44.553Z,9.48
2024-02-02T21:28:11.282Z,9.46
2024-02-02T21:30:38.132Z,9.43
2024-02-02T21:33:05.559Z,9.41
2024-02-02T21:35:32.284Z,9.37
2024-02-02T21:37:59.303Z,9.34
2024-02-02T21:40:25.975Z,9.28
2024-02-02T21:42:55.446Z,9.26
2024-02-02T21:45:22.925Z,9.23
2024-02-02T21:47:49.919Z,9.20
2024-02-02T21:50:17.061Z,9.21
2024-02-02T21:52:44.235Z,9.18
2024-02-02T21:55:39.047Z,9.16
2024-02-02T21:58:05.762Z,9.17
2024-02-02T22:00:32.550Z,9.17
2024-02-02T22:03:00.375Z,9.19
2024-02-02T22:05:27.022Z,9.16
2024-02-02T22:07:54.970Z,9.16
2024-02-02T22:10:21.807Z,9.15
2024-02-02T22:12:48.442Z,9.14
2024-02-02T22:15:15.602Z,9.14
2024-02-02T22:17:42.394Z,9.13
2024-02-02T22:20:09.645Z,9.13
2024-02-02T22:22:36.300Z,9.12
2024-02-02T22:25:03.854Z,9.13
2024-02-02T22:27:34.942Z,9.13
2024-02-02T22:30:07.298Z,9.13
2024-02-02T22:32:34.391Z,9.14
2024-02-02T22:35:02.528Z,9.13
2024-02-02T22:37:29.364Z,9.14
2024-02-02T22:39:56.546Z,9.15
2024-02-02T22:42:23.559Z,9.14
2024-02-02T22:44:50.589Z,9.14
2024-02-02T22:47:17.241Z,9.13
2024-02-02T22:49:44.014Z,9.14
2024-02-02T22:52:10.917Z,9.14
2024-02-02T22:54:37.667Z,9.14
2024-02-02T22:57:04.858Z,9.15
2024-02-02T22:59:31.569Z,9.16
2024-02-02T23:01:58.271Z,9.15
2024-02-02T23:04:25.011Z,9.14
2024-02-02T23:06:51.735Z,9.14
2024-02-02T23:09:18.580Z,9.13
2024-02-02T23:11:45.289Z,9.11
2024-02-02T23:37:25.417Z,9.09
2024-02-02T23:39:52.380Z,9.10
2024-02-02T23:42:19.122Z,9.11
2024-02-02T23:44:45.680Z,9.08
2024-02-02T23:47:12.549Z,9.08
2024-02-02T23:49:39.715Z,9.09
2024-02-02T23:52:07.037Z,9.10
2024-02-02T23:54:33.842Z,9.08
2024-02-02T23:57:00.824Z,9.10
2024-02-02T23:59:27.459Z,9.10
